sensor_id;sensor_type;location;lat;lon;timestamp;P1;durP1;ratioP1;P2;durP2;ratioP2
40150;SDS011;25866;52.420;10.640;2024-03-17T00:02:02;8.60;;;2.20;;
40150;SDS011;25866;52.420;10.640;2024-03-17T00:04:31;11.27;;;2.17;;
40150;SDS011;25866;52.420;10.640;2024-03-17T00:06:57;12.10;;;2.57;;
40150;SDS011;25866;52.420;10.640;2024-03-17T00:09:22;8.50;;;2.20;;
40150;SDS011;25866;52.420;10.640;2024-03-17T00:11:49;8.90;;;2.03;;
40150;SDS011;25866;52.420;10.640;2024-03-17T00:14:15;7.03;;;1.90;;
40150;SDS011;25866;52.420;10.640;2024-03-17T00:16:41;13.17;;;2.67;;
40150;SDS011;25866;52.420;10.640;2024-03-17T00:19:08;10.70;;;2.47;;
40150;SDS011;25866;52.420;10.640;2024-03-17T00:21:35;13.13;;;2.30;;
40150;SDS011;25866;52.420;10.640;2024-03-17T00:24:01;13.63;;;2.60;;
40150;SDS011;25866;52.420;10.640;2024-03-17T00:26:27;15.40;;;3.10;;
40150;SDS011;25866;52.420;10.640;2024-03-17T00:28:54;13.03;;;2.30;;
40150;SDS011;25866;52.420;10.640;2024-03-17T00:31:21;15.13;;;2.10;;
40150;SDS011;25866;52.420;10.640;2024-03-17T00:33:51;12.87;;;1.93;;
40150;SDS011;25866;52.420;10.640;2024-03-17T00:36:17;10.07;;;2.30;;
40150;SDS011;25866;52.420;10.640;2024-03-17T00:38:43;10.47;;;2.60;;
40150;SDS011;25866;52.420;10.640;2024-03-17T00:41:09;10.83;;;2.70;;
40150;SDS011;25866;52.420;10.640;2024-03-17T00:43:35;11.07;;;1.87;;
40150;SDS011;25866;52.420;10.640;2024-03-17T00:46:02;13.87;;;2.27;;
40150;SDS011;25866;52.420;10.640;2024-03-17T00:48:27;22.27;;;2.53;;
40150;SDS011;25866;52.420;10.640;2024-03-17T00:50:56;8.43;;;2.03;;
40150;SDS011;25866;52.420;10.640;2024-03-17T00:53:23;7.63;;;2.00;;
40150;SDS011;25866;52.420;10.640;2024-03-17T00:55:53;9.60;;;2.27;;
40150;SDS011;25866;52.420;10.640;2024-03-17T00:58:22;9.30;;;2.20;;
40150;SDS011;25866;52.420;10.640;2024-03-17T01:00:48;8.90;;;2.37;;
40150;SDS011;25866;52.420;10.640;2024-03-17T01:03:14;11.10;;;2.80;;
40150;SDS011;25866;52.420;10.640;2024-03-17T01:05:44;7.50;;;2.10;;
40150;SDS011;25866;52.420;10.640;2024-03-17T01:08:12;17.37;;;2.47;;
40150;SDS011;25866;52.420;10.640;2024-03-17T01:10:39;10.90;;;2.40;;
40150;SDS011;25866;52.420;10.640;2024-03-17T01:13:07;8.00;;;2.33;;
40150;SDS011;25866;52.420;10.640;2024-03-17T01:15:38;11.60;;;2.50;;
40150;SDS011;25866;52.420;10.640;2024-03-17T01:18:04;10.60;;;2.10;;
40150;SDS011;25866;52.420;10.640;2024-03-17T01:20:39;7.80;;;1.80;;
40150;SDS011;25866;52.420;10.640;2024-03-17T01:23:06;7.53;;;2.10;;
40150;SDS011;25866;52.420;10.640;2024-03-17T01:25:34;9.03;;;1.93;;
40150;SDS011;25866;52.420;10.640;2024-03-17T01:28:03;8.97;;;1.60;;
40150;SDS011;25866;52.420;10.640;2024-03-17T01:30:29;9.77;;;2.20;;
40150;SDS011;25866;52.420;10.640;2024-03-17T01:32:56;8.37;;;2.03;;
40150;SDS011;25866;52.420;10.640;2024-03-17T01:35:21;10.23;;;2.03;;
40150;SDS011;25866;52.420;10.640;2024-03-17T01:37:48;12.30;;;2.17;;
40150;SDS011;25866;52.420;10.640;2024-03-17T01:40:14;6.87;;;1.90;;
40150;SDS011;25866;52.420;10.640;2024-03-17T01:42:42;13.70;;;2.20;;
40150;SDS011;25866;52.420;10.640;2024-03-17T01:45:25;9.00;;;2.27;;
40150;SDS011;25866;52.420;10.640;2024-03-17T01:47:52;14.70;;;2.20;;
40150;SDS011;25866;52.420;10.640;2024-03-17T01:50:19;12.93;;;2.23;;
40150;SDS011;25866;52.420;10.640;2024-03-17T01:52:56;16.33;;;2.33;;
40150;SDS011;25866;52.420;10.640;2024-03-17T01:55:25;11.17;;;2.33;;
40150;SDS011;25866;52.420;10.640;2024-03-17T01:57:52;10.70;;;2.13;;
40150;SDS011;25866;52.420;10.640;2024-03-17T02:00:19;15.07;;;2.83;;
40150;SDS011;25866;52.420;10.640;2024-03-17T02:02:46;10.13;;;2.33;;
40150;SDS011;25866;52.420;10.640;2024-03-17T02:05:12;13.00;;;2.33;;
40150;SDS011;25866;52.420;10.640;2024-03-17T02:07:38;11.70;;;2.27;;
40150;SDS011;25866;52.420;10.640;2024-03-17T02:10:05;8.67;;;2.40;;
40150;SDS011;25866;52.420;10.640;2024-03-17T02:12:34;12.27;;;3.37;;
40150;SDS011;25866;52.420;10.640;2024-03-17T02:15:01;12.63;;;3.07;;
40150;SDS011;25866;52.420;10.640;2024-03-17T02:17:33;12.03;;;2.67;;
40150;SDS011;25866;52.420;10.640;2024-03-17T02:19:59;11.63;;;2.67;;
40150;SDS011;25866;52.420;10.640;2024-03-17T02:22:26;8.87;;;2.20;;
40150;SDS011;25866;52.420;10.640;2024-03-17T02:24:55;14.97;;;2.17;;
40150;SDS011;25866;52.420;10.640;2024-03-17T02:27:21;13.23;;;2.40;;
40150;SDS011;25866;52.420;10.640;2024-03-17T02:29:47;13.07;;;3.10;;
40150;SDS011;25866;52.420;10.640;2024-03-17T02:32:14;10.80;;;2.60;;
40150;SDS011;25866;52.420;10.640;2024-03-17T02:34:39;13.00;;;2.27;;
40150;SDS011;25866;52.420;10.640;2024-03-17T02:37:06;12.37;;;3.17;;
40150;SDS011;25866;52.420;10.640;2024-03-17T02:39:32;6.33;;;2.20;;
40150;SDS011;25866;52.420;10.640;2024-03-17T02:42:08;7.67;;;1.87;;
40150;SDS011;25866;52.420;10.640;2024-03-17T02:44:36;8.60;;;2.03;;
40150;SDS011;25866;52.420;10.640;2024-03-17T02:47:05;15.20;;;2.60;;
40150;SDS011;25866;52.420;10.640;2024-03-17T02:49:34;8.00;;;2.30;;
40150;SDS011;25866;52.420;10.640;2024-03-17T02:52:07;13.53;;;2.50;;
40150;SDS011;25866;52.420;10.640;2024-03-17T02:54:37;9.60;;;2.43;;
40150;SDS011;25866;52.420;10.640;2024-03-17T02:57:03;8.73;;;2.00;;
40150;SDS011;25866;52.420;10.640;2024-03-17T02:59:31;10.67;;;2.27;;
40150;SDS011;25866;52.420;10.640;2024-03-17T03:02:00;15.30;;;2.73;;
40150;SDS011;25866;52.420;10.640;2024-03-17T03:04:27;12.93;;;2.23;;
40150;SDS011;25866;52.420;10.640;2024-03-17T03:06:53;10.10;;;1.93;;
40150;SDS011;25866;52.420;10.640;2024-03-17T03:09:19;12.77;;;2.20;;
40150;SDS011;25866;52.420;10.640;2024-03-17T03:14:33;9.57;;;2.53;;
40150;SDS011;25866;52.420;10.640;2024-03-17T03:16:59;8.13;;;2.23;;
40150;SDS011;25866;52.420;10.640;2024-03-17T03:19:26;13.77;;;2.43;;
40150;SDS011;25866;52.420;10.640;2024-03-17T03:21:54;13.40;;;2.80;;
40150;SDS011;25866;52.420;10.640;2024-03-17T03:24:20;11.23;;;2.50;;
40150;SDS011;25866;52.420;10.640;2024-03-17T03:26:45;11.83;;;2.40;;
40150;SDS011;25866;52.420;10.640;2024-03-17T03:29:11;9.73;;;2.50;;
40150;SDS011;25866;52.420;10.640;2024-03-17T03:31:39;9.73;;;2.37;;
40150;SDS011;25866;52.420;10.640;2024-03-17T03:34:06;12.13;;;2.27;;
40150;SDS011;25866;52.420;10.640;2024-03-17T03:36:37;7.83;;;2.10;;
40150;SDS011;25866;52.420;10.640;2024-03-17T03:39:04;15.13;;;2.40;;
40150;SDS011;25866;52.420;10.640;2024-03-17T03:41:30;12.33;;;2.33;;
40150;SDS011;25866;52.420;10.640;2024-03-17T03:44:00;6.33;;;1.70;;
40150;SDS011;25866;52.420;10.640;2024-03-17T03:46:26;10.47;;;2.10;;
40150;SDS011;25866;52.420;10.640;2024-03-17T03:48:51;11.90;;;2.10;;
40150;SDS011;25866;52.420;10.640;2024-03-17T03:53:50;12.53;;;2.23;;
40150;SDS011;25866;52.420;10.640;2024-03-17T03:56:16;6.93;;;2.03;;
40150;SDS011;25866;52.420;10.640;2024-03-17T03:58:42;6.40;;;1.93;;
40150;SDS011;25866;52.420;10.640;2024-03-17T04:01:08;14.27;;;2.43;;
40150;SDS011;25866;52.420;10.640;2024-03-17T04:03:36;7.83;;;1.90;;
40150;SDS011;25866;52.420;10.640;2024-03-17T04:06:09;8.30;;;2.20;;
40150;SDS011;25866;52.420;10.640;2024-03-17T04:08:36;10.43;;;2.27;;
40150;SDS011;25866;52.420;10.640;2024-03-17T04:11:07;12.53;;;2.43;;
40150;SDS011;25866;52.420;10.640;2024-03-17T04:13:33;12.17;;;2.10;;
40150;SDS011;25866;52.420;10.640;2024-03-17T04:16:03;6.27;;;1.87;;
40150;SDS011;25866;52.420;10.640;2024-03-17T04:18:31;9.67;;;2.30;;
40150;SDS011;25866;52.420;10.640;2024-03-17T04:23:47;8.60;;;2.17;;
40150;SDS011;25866;52.420;10.640;2024-03-17T04:26:13;15.43;;;2.87;;
40150;SDS011;25866;52.420;10.640;2024-03-17T04:28:40;13.03;;;2.60;;
40150;SDS011;25866;52.420;10.640;2024-03-17T04:31:06;7.97;;;2.33;;
40150;SDS011;25866;52.420;10.640;2024-03-17T04:33:33;14.63;;;2.77;;
40150;SDS011;25866;52.420;10.640;2024-03-17T04:36:01;8.97;;;1.97;;
40150;SDS011;25866;52.420;10.640;2024-03-17T04:38:27;9.60;;;2.30;;
40150;SDS011;25866;52.420;10.640;2024-03-17T04:40:54;9.73;;;2.47;;
40150;SDS011;25866;52.420;10.640;2024-03-17T04:43:35;8.23;;;2.13;;
40150;SDS011;25866;52.420;10.640;2024-03-17T04:46:01;6.47;;;2.53;;
40150;SDS011;25866;52.420;10.640;2024-03-17T04:48:32;12.37;;;2.57;;
40150;SDS011;25866;52.420;10.640;2024-03-17T04:51:02;11.63;;;2.63;;
40150;SDS011;25866;52.420;10.640;2024-03-17T04:53:30;11.47;;;2.83;;
40150;SDS011;25866;52.420;10.640;2024-03-17T04:56:03;11.33;;;2.37;;
40150;SDS011;25866;52.420;10.640;2024-03-17T04:58:33;9.90;;;2.20;;
40150;SDS011;25866;52.420;10.640;2024-03-17T05:01:06;8.87;;;2.43;;
40150;SDS011;25866;52.420;10.640;2024-03-17T05:03:33;8.67;;;2.23;;
40150;SDS011;25866;52.420;10.640;2024-03-17T05:06:00;9.57;;;2.47;;
40150;SDS011;25866;52.420;10.640;2024-03-17T05:08:26;9.13;;;2.10;;
40150;SDS011;25866;52.420;10.640;2024-03-17T05:10:59;9.17;;;2.57;;
40150;SDS011;25866;52.420;10.640;2024-03-17T05:13:32;9.30;;;2.20;;
40150;SDS011;25866;52.420;10.640;2024-03-17T05:16:00;12.00;;;2.33;;
40150;SDS011;25866;52.420;10.640;2024-03-17T05:18:27;10.27;;;2.97;;
40150;SDS011;25866;52.420;10.640;2024-03-17T05:20:56;11.20;;;2.73;;
40150;SDS011;25866;52.420;10.640;2024-03-17T05:23:28;18.77;;;2.70;;
40150;SDS011;25866;52.420;10.640;2024-03-17T05:25:55;11.70;;;2.43;;
40150;SDS011;25866;52.420;10.640;2024-03-17T05:28:24;5.43;;;1.97;;
40150;SDS011;25866;52.420;10.640;2024-03-17T05:30:50;14.93;;;2.43;;
40150;SDS011;25866;52.420;10.640;2024-03-17T05:33:19;11.20;;;2.50;;
40150;SDS011;25866;52.420;10.640;2024-03-17T05:35:52;9.50;;;2.67;;
40150;SDS011;25866;52.420;10.640;2024-03-17T05:38:20;11.77;;;2.27;;
40150;SDS011;25866;52.420;10.640;2024-03-17T05:40:56;8.93;;;2.23;;
40150;SDS011;25866;52.420;10.640;2024-03-17T05:43:28;14.07;;;2.33;;
40150;SDS011;25866;52.420;10.640;2024-03-17T05:45:59;16.57;;;2.60;;
40150;SDS011;25866;52.420;10.640;2024-03-17T05:48:26;12.93;;;2.47;;
40150;SDS011;25866;52.420;10.640;2024-03-17T05:50:52;16.60;;;2.70;;
40150;SDS011;25866;52.420;10.640;2024-03-17T05:53:21;10.20;;;2.60;;
40150;SDS011;25866;52.420;10.640;2024-03-17T05:55:49;10.40;;;2.53;;
40150;SDS011;25866;52.420;10.640;2024-03-17T05:58:15;8.77;;;2.30;;
40150;SDS011;25866;52.420;10.640;2024-03-17T06:00:41;6.90;;;2.60;;
40150;SDS011;25866;52.420;10.640;2024-03-17T06:03:09;16.83;;;2.80;;
40150;SDS011;25866;52.420;10.640;2024-03-17T06:05:36;9.53;;;2.63;;
40150;SDS011;25866;52.420;10.640;2024-03-17T06:08:03;9.20;;;2.40;;
40150;SDS011;25866;52.420;10.640;2024-03-17T06:10:31;8.47;;;2.87;;
40150;SDS011;25866;52.420;10.640;2024-03-17T06:13:04;15.53;;;3.57;;
40150;SDS011;25866;52.420;10.640;2024-03-17T06:15:30;10.97;;;2.50;;
40150;SDS011;25866;52.420;10.640;2024-03-17T06:17:56;12.87;;;2.70;;
40150;SDS011;25866;52.420;10.640;2024-03-17T06:20:25;12.23;;;2.50;;
40150;SDS011;25866;52.420;10.640;2024-03-17T06:23:03;12.03;;;2.37;;
40150;SDS011;25866;52.420;10.640;2024-03-17T06:25:29;10.20;;;2.43;;
40150;SDS011;25866;52.420;10.640;2024-03-17T06:27:54;8.00;;;2.10;;
40150;SDS011;25866;52.420;10.640;2024-03-17T06:30:22;12.13;;;2.63;;
40150;SDS011;25866;52.420;10.640;2024-03-17T06:32:49;11.27;;;2.57;;
40150;SDS011;25866;52.420;10.640;2024-03-17T06:35:14;9.70;;;2.50;;
40150;SDS011;25866;52.420;10.640;2024-03-17T06:37:41;16.90;;;2.77;;
40150;SDS011;25866;52.420;10.640;2024-03-17T06:40:09;12.10;;;3.37;;
40150;SDS011;25866;52.420;10.640;2024-03-17T06:42:57;9.23;;;3.03;;
40150;SDS011;25866;52.420;10.640;2024-03-17T06:45:25;10.73;;;2.87;;
40150;SDS011;25866;52.420;10.640;2024-03-17T06:48:02;9.83;;;2.90;;
40150;SDS011;25866;52.420;10.640;2024-03-17T06:50:28;7.70;;;2.90;;
40150;SDS011;25866;52.420;10.640;2024-03-17T06:53:00;10.53;;;3.00;;
40150;SDS011;25866;52.420;10.640;2024-03-17T06:55:26;12.27;;;2.90;;
40150;SDS011;25866;52.420;10.640;2024-03-17T06:57:53;14.70;;;2.70;;
40150;SDS011;25866;52.420;10.640;2024-03-17T07:00:18;14.63;;;3.83;;
40150;SDS011;25866;52.420;10.640;2024-03-17T07:02:57;10.23;;;3.23;;
40150;SDS011;25866;52.420;10.640;2024-03-17T07:05:26;12.00;;;3.20;;
40150;SDS011;25866;52.420;10.640;2024-03-17T07:07:51;17.40;;;3.77;;
40150;SDS011;25866;52.420;10.640;2024-03-17T07:10:17;9.00;;;2.97;;
40150;SDS011;25866;52.420;10.640;2024-03-17T07:12:43;11.33;;;3.20;;
40150;SDS011;25866;52.420;10.640;2024-03-17T07:15:09;8.93;;;3.10;;
40150;SDS011;25866;52.420;10.640;2024-03-17T07:17:36;15.13;;;3.47;;
40150;SDS011;25866;52.420;10.640;2024-03-17T07:20:02;9.33;;;3.17;;
40150;SDS011;25866;52.420;10.640;2024-03-17T07:22:28;7.97;;;3.03;;
40150;SDS011;25866;52.420;10.640;2024-03-17T07:24:55;11.87;;;3.00;;
40150;SDS011;25866;52.420;10.640;2024-03-17T07:27:25;12.97;;;3.37;;
40150;SDS011;25866;52.420;10.640;2024-03-17T07:29:54;10.90;;;3.40;;
40150;SDS011;25866;52.420;10.640;2024-03-17T07:32:20;13.70;;;3.90;;
40150;SDS011;25866;52.420;10.640;2024-03-17T07:34:50;14.27;;;4.07;;
40150;SDS011;25866;52.420;10.640;2024-03-17T07:37:16;12.93;;;3.80;;
40150;SDS011;25866;52.420;10.640;2024-03-17T07:39:42;16.63;;;3.47;;
40150;SDS011;25866;52.420;10.640;2024-03-17T07:42:08;11.93;;;3.90;;
40150;SDS011;25866;52.420;10.640;2024-03-17T07:44:35;13.50;;;3.33;;
40150;SDS011;25866;52.420;10.640;2024-03-17T07:47:01;12.53;;;3.73;;
40150;SDS011;25866;52.420;10.640;2024-03-17T07:49:29;12.50;;;3.87;;
40150;SDS011;25866;52.420;10.640;2024-03-17T07:51:55;9.33;;;3.63;;
40150;SDS011;25866;52.420;10.640;2024-03-17T07:54:28;18.80;;;3.70;;
40150;SDS011;25866;52.420;10.640;2024-03-17T07:56:55;12.10;;;3.43;;
40150;SDS011;25866;52.420;10.640;2024-03-17T07:59:21;13.60;;;3.30;;
40150;SDS011;25866;52.420;10.640;2024-03-17T08:01:46;14.10;;;4.03;;
40150;SDS011;25866;52.420;10.640;2024-03-17T08:06:48;16.80;;;3.80;;
40150;SDS011;25866;52.420;10.640;2024-03-17T08:11:43;11.47;;;3.70;;
40150;SDS011;25866;52.420;10.640;2024-03-17T08:14:25;15.67;;;3.40;;
40150;SDS011;25866;52.420;10.640;2024-03-17T08:16:51;15.97;;;3.63;;
40150;SDS011;25866;52.420;10.640;2024-03-17T08:19:17;15.50;;;3.20;;
40150;SDS011;25866;52.420;10.640;2024-03-17T08:21:43;14.93;;;2.57;;
40150;SDS011;25866;52.420;10.640;2024-03-17T08:24:12;11.47;;;2.73;;
40150;SDS011;25866;52.420;10.640;2024-03-17T08:26:38;17.20;;;3.20;;
40150;SDS011;25866;52.420;10.640;2024-03-17T08:29:05;10.17;;;2.70;;
40150;SDS011;25866;52.420;10.640;2024-03-17T08:31:31;14.83;;;2.80;;
40150;SDS011;25866;52.420;10.640;2024-03-17T08:33:58;12.53;;;3.13;;
40150;SDS011;25866;52.420;10.640;2024-03-17T08:36:24;12.40;;;2.80;;
40150;SDS011;25866;52.420;10.640;2024-03-17T08:38:51;12.43;;;3.60;;
40150;SDS011;25866;52.420;10.640;2024-03-17T08:41:17;12.63;;;2.67;;
40150;SDS011;25866;52.420;10.640;2024-03-17T08:43:48;15.50;;;2.77;;
40150;SDS011;25866;52.420;10.640;2024-03-17T08:46:14;19.57;;;2.70;;
40150;SDS011;25866;52.420;10.640;2024-03-17T08:48:40;18.07;;;2.60;;
40150;SDS011;25866;52.420;10.640;2024-03-17T08:51:08;15.40;;;2.37;;
40150;SDS011;25866;52.420;10.640;2024-03-17T08:56:07;13.70;;;2.50;;
40150;SDS011;25866;52.420;10.640;2024-03-17T08:58:33;16.87;;;2.80;;
40150;SDS011;25866;52.420;10.640;2024-03-17T09:01:02;13.97;;;2.50;;
40150;SDS011;25866;52.420;10.640;2024-03-17T09:03:31;13.10;;;3.20;;
40150;SDS011;25866;52.420;10.640;2024-03-17T09:05:57;9.93;;;3.07;;
40150;SDS011;25866;52.420;10.640;2024-03-17T09:08:23;18.20;;;3.87;;
40150;SDS011;25866;52.420;10.640;2024-03-17T09:10:51;14.70;;;2.97;;
40150;SDS011;25866;52.420;10.640;2024-03-17T09:13:18;17.37;;;3.30;;
40150;SDS011;25866;52.420;10.640;2024-03-17T09:16:00;12.63;;;2.80;;
40150;SDS011;25866;52.420;10.640;2024-03-17T09:18:27;13.57;;;3.20;;
40150;SDS011;25866;52.420;10.640;2024-03-17T09:21:00;13.87;;;3.40;;
40150;SDS011;25866;52.420;10.640;2024-03-17T09:23:28;12.80;;;2.77;;
40150;SDS011;25866;52.420;10.640;2024-03-17T09:25:58;10.03;;;2.53;;
40150;SDS011;25866;52.420;10.640;2024-03-17T09:28:26;13.23;;;3.07;;
40150;SDS011;25866;52.420;10.640;2024-03-17T09:30:53;12.57;;;2.63;;
40150;SDS011;25866;52.420;10.640;2024-03-17T09:33:20;13.23;;;2.87;;
40150;SDS011;25866;52.420;10.640;2024-03-17T09:35:54;12.83;;;2.40;;
40150;SDS011;25866;52.420;10.640;2024-03-17T09:38:25;8.80;;;2.63;;
40150;SDS011;25866;52.420;10.640;2024-03-17T09:40:52;10.73;;;2.73;;
40150;SDS011;25866;52.420;10.640;2024-03-17T09:43:20;11.77;;;2.00;;
40150;SDS011;25866;52.420;10.640;2024-03-17T09:45:48;7.77;;;1.80;;
40150;SDS011;25866;52.420;10.640;2024-03-17T09:48:16;7.90;;;2.20;;
40150;SDS011;25866;52.420;10.640;2024-03-17T09:50:44;12.43;;;2.47;;
40150;SDS011;25866;52.420;10.640;2024-03-17T09:53:23;9.88;;;1.95;;
40150;SDS011;25866;52.420;10.640;2024-03-17T09:58:34;11.43;;;2.93;;
40150;SDS011;25866;52.420;10.640;2024-03-17T10:01:00;12.63;;;2.50;;
40150;SDS011;25866;52.420;10.640;2024-03-17T10:03:39;10.65;;;1.95;;
40150;SDS011;25866;52.420;10.640;2024-03-17T10:06:24;12.77;;;2.20;;
40150;SDS011;25866;52.420;10.640;2024-03-17T10:08:55;8.63;;;2.03;;
40150;SDS011;25866;52.420;10.640;2024-03-17T10:11:24;9.15;;;2.47;;
40150;SDS011;25866;52.420;10.640;2024-03-17T10:14:07;9.27;;;1.88;;
40150;SDS011;25866;52.420;10.640;2024-03-17T10:16:34;11.27;;;2.27;;
40150;SDS011;25866;52.420;10.640;2024-03-17T10:21:47;8.10;;;1.75;;
40150;SDS011;25866;52.420;10.640;2024-03-17T10:24:31;11.40;;;2.00;;
40150;SDS011;25866;52.420;10.640;2024-03-17T10:26:59;9.02;;;2.08;;
40150;SDS011;25866;52.420;10.640;2024-03-17T10:34:41;9.13;;;1.97;;
40150;SDS011;25866;52.420;10.640;2024-03-17T10:37:09;8.00;;;1.70;;
40150;SDS011;25866;52.420;10.640;2024-03-17T10:39:39;8.27;;;1.67;;
40150;SDS011;25866;52.420;10.640;2024-03-17T10:42:07;9.23;;;1.90;;
40150;SDS011;25866;52.420;10.640;2024-03-17T10:44:47;14.03;;;4.30;;
40150;SDS011;25866;52.420;10.640;2024-03-17T10:47:23;10.02;;;2.70;;
40150;SDS011;25866;52.420;10.640;2024-03-17T10:49:53;5.95;;;1.83;;
40150;SDS011;25866;52.420;10.640;2024-03-17T10:52:20;7.25;;;2.88;;
40150;SDS011;25866;52.420;10.640;2024-03-17T10:54:52;11.30;;;2.10;;
40150;SDS011;25866;52.420;10.640;2024-03-17T10:59:52;9.68;;;2.00;;
40150;SDS011;25866;52.420;10.640;2024-03-17T11:02:26;9.45;;;2.00;;
40150;SDS011;25866;52.420;10.640;2024-03-17T11:05:03;8.65;;;1.73;;
40150;SDS011;25866;52.420;10.640;2024-03-17T11:07:32;14.85;;;2.25;;
40150;SDS011;25866;52.420;10.640;2024-03-17T11:10:02;7.70;;;1.77;;
40150;SDS011;25866;52.420;10.640;2024-03-17T11:20:36;7.75;;;2.00;;
40150;SDS011;25866;52.420;10.640;2024-03-17T11:23:06;9.73;;;1.60;;
40150;SDS011;25866;52.420;10.640;2024-03-17T11:25:37;11.45;;;2.45;;
40150;SDS011;25866;52.420;10.640;2024-03-17T11:28:06;4.28;;;1.52;;
40150;SDS011;25866;52.420;10.640;2024-03-17T11:41:53;6.78;;;1.67;;
40150;SDS011;25866;52.420;10.640;2024-03-17T11:46:59;7.13;;;2.33;;
40150;SDS011;25866;52.420;10.640;2024-03-17T11:49:26;9.45;;;1.95;;
40150;SDS011;25866;52.420;10.640;2024-03-17T11:54:26;11.68;;;2.13;;
40150;SDS011;25866;52.420;10.640;2024-03-17T11:57:42;8.30;;;1.73;;
40150;SDS011;25866;52.420;10.640;2024-03-17T11:59:49;10.30;;;1.63;;
40150;SDS011;25866;52.420;10.640;2024-03-17T12:02:17;9.57;;;2.25;;
40150;SDS011;25866;52.420;10.640;2024-03-17T12:04:48;8.27;;;1.85;;
40150;SDS011;25866;52.420;10.640;2024-03-17T12:07:17;8.55;;;2.08;;
40150;SDS011;25866;52.420;10.640;2024-03-17T12:09:45;12.13;;;1.88;;
40150;SDS011;25866;52.420;10.640;2024-03-17T12:12:20;7.47;;;2.00;;
40150;SDS011;25866;52.420;10.640;2024-03-17T12:14:48;9.35;;;2.15;;
40150;SDS011;25866;52.420;10.640;2024-03-17T12:17:20;4.88;;;1.65;;
40150;SDS011;25866;52.420;10.640;2024-03-17T12:19:47;7.95;;;2.35;;
40150;SDS011;25866;52.420;10.640;2024-03-17T12:22:20;10.52;;;2.22;;
40150;SDS011;25866;52.420;10.640;2024-03-17T12:24:50;6.20;;;1.95;;
40150;SDS011;25866;52.420;10.640;2024-03-17T12:27:30;9.65;;;2.17;;
40150;SDS011;25866;52.420;10.640;2024-03-17T12:29:55;6.15;;;1.80;;
40150;SDS011;25866;52.420;10.640;2024-03-17T12:32:22;7.70;;;1.85;;
40150;SDS011;25866;52.420;10.640;2024-03-17T12:34:49;7.90;;;1.83;;
40150;SDS011;25866;52.420;10.640;2024-03-17T12:37:21;6.82;;;1.90;;
40150;SDS011;25866;52.420;10.640;2024-03-17T12:39:48;7.10;;;1.88;;
40150;SDS011;25866;52.420;10.640;2024-03-17T12:42:15;6.65;;;1.90;;
40150;SDS011;25866;52.420;10.640;2024-03-17T12:44:52;8.43;;;2.40;;
40150;SDS011;25866;52.420;10.640;2024-03-17T12:47:33;9.25;;;2.08;;
40150;SDS011;25866;52.420;10.640;2024-03-17T12:50:00;9.10;;;1.77;;
40150;SDS011;25866;52.420;10.640;2024-03-17T12:52:28;8.10;;;2.08;;
40150;SDS011;25866;52.420;10.640;2024-03-17T12:54:58;9.68;;;2.00;;
40150;SDS011;25866;52.420;10.640;2024-03-17T13:00:46;7.57;;;2.15;;
40150;SDS011;25866;52.420;10.640;2024-03-17T13:03:33;9.02;;;2.22;;
40150;SDS011;25866;52.420;10.640;2024-03-17T13:06:03;7.93;;;2.03;;
40150;SDS011;25866;52.420;10.640;2024-03-17T13:08:33;7.68;;;2.00;;
40150;SDS011;25866;52.420;10.640;2024-03-17T13:10:59;5.95;;;1.80;;
40150;SDS011;25866;52.420;10.640;2024-03-17T13:13:25;6.75;;;1.85;;
40150;SDS011;25866;52.420;10.640;2024-03-17T13:15:51;7.28;;;2.17;;
40150;SDS011;25866;52.420;10.640;2024-03-17T13:18:19;4.75;;;1.80;;
40150;SDS011;25866;52.420;10.640;2024-03-17T13:20:45;7.25;;;2.05;;
40150;SDS011;25866;52.420;10.640;2024-03-17T13:23:12;8.48;;;1.95;;
40150;SDS011;25866;52.420;10.640;2024-03-17T13:25:38;8.15;;;2.42;;
40150;SDS011;25866;52.420;10.640;2024-03-17T13:28:15;11.10;;;2.53;;
40150;SDS011;25866;52.420;10.640;2024-03-17T13:30:41;12.15;;;2.38;;
40150;SDS011;25866;52.420;10.640;2024-03-17T13:33:08;5.72;;;1.83;;
40150;SDS011;25866;52.420;10.640;2024-03-17T13:35:34;4.47;;;1.52;;
40150;SDS011;25866;52.420;10.640;2024-03-17T13:38:08;6.28;;;2.08;;
40150;SDS011;25866;52.420;10.640;2024-03-17T13:40:35;7.32;;;2.10;;
40150;SDS011;25866;52.420;10.640;2024-03-17T13:43:03;6.80;;;2.08;;
40150;SDS011;25866;52.420;10.640;2024-03-17T13:45:29;5.30;;;1.60;;
40150;SDS011;25866;52.420;10.640;2024-03-17T13:48:03;7.65;;;1.77;;
40150;SDS011;25866;52.420;10.640;2024-03-17T13:50:30;5.68;;;2.15;;
40150;SDS011;25866;52.420;10.640;2024-03-17T13:52:56;7.15;;;1.75;;
40150;SDS011;25866;52.420;10.640;2024-03-17T13:55:23;6.18;;;1.92;;
40150;SDS011;25866;52.420;10.640;2024-03-17T13:57:57;8.23;;;1.65;;
40150;SDS011;25866;52.420;10.640;2024-03-17T14:00:28;5.60;;;1.83;;
40150;SDS011;25866;52.420;10.640;2024-03-17T14:03:01;8.82;;;2.05;;
40150;SDS011;25866;52.420;10.640;2024-03-17T14:05:27;8.30;;;1.83;;
40150;SDS011;25866;52.420;10.640;2024-03-17T14:07:54;7.75;;;1.52;;
40150;SDS011;25866;52.420;10.640;2024-03-17T14:10:21;8.40;;;1.92;;
40150;SDS011;25866;52.420;10.640;2024-03-17T14:12:48;5.78;;;1.60;;
40150;SDS011;25866;52.420;10.640;2024-03-17T14:15:14;4.95;;;1.60;;
40150;SDS011;25866;52.420;10.640;2024-03-17T14:17:43;7.03;;;1.67;;
40150;SDS011;25866;52.420;10.640;2024-03-17T14:20:10;8.55;;;1.70;;
40150;SDS011;25866;52.420;10.640;2024-03-17T14:22:36;7.30;;;1.98;;
40150;SDS011;25866;52.420;10.640;2024-03-17T14:25:06;6.40;;;1.85;;
40150;SDS011;25866;52.420;10.640;2024-03-17T14:27:34;5.53;;;1.60;;
40150;SDS011;25866;52.420;10.640;2024-03-17T14:30:01;8.65;;;1.70;;
40150;SDS011;25866;52.420;10.640;2024-03-17T14:32:29;4.82;;;1.85;;
40150;SDS011;25866;52.420;10.640;2024-03-17T14:34:55;5.10;;;1.92;;
40150;SDS011;25866;52.420;10.640;2024-03-17T14:37:21;7.85;;;1.90;;
40150;SDS011;25866;52.420;10.640;2024-03-17T14:39:51;7.53;;;1.83;;
40150;SDS011;25866;52.420;10.640;2024-03-17T14:42:20;8.60;;;1.60;;
40150;SDS011;25866;52.420;10.640;2024-03-17T14:44:46;10.75;;;2.33;;
40150;SDS011;25866;52.420;10.640;2024-03-17T14:47:21;6.68;;;1.70;;
40150;SDS011;25866;52.420;10.640;2024-03-17T14:49:49;9.52;;;2.17;;
40150;SDS011;25866;52.420;10.640;2024-03-17T14:52:16;11.85;;;2.40;;
40150;SDS011;25866;52.420;10.640;2024-03-17T14:54:42;7.18;;;2.13;;
40150;SDS011;25866;52.420;10.640;2024-03-17T14:57:07;5.78;;;1.48;;
40150;SDS011;25866;52.420;10.640;2024-03-17T14:59:34;5.45;;;1.90;;
40150;SDS011;25866;52.420;10.640;2024-03-17T15:02:00;9.55;;;1.92;;
40150;SDS011;25866;52.420;10.640;2024-03-17T15:04:25;9.00;;;2.13;;
40150;SDS011;25866;52.420;10.640;2024-03-17T15:06:52;7.65;;;1.92;;
40150;SDS011;25866;52.420;10.640;2024-03-17T15:09:25;11.07;;;1.92;;
40150;SDS011;25866;52.420;10.640;2024-03-17T15:11:51;5.60;;;2.00;;
40150;SDS011;25866;52.420;10.640;2024-03-17T15:14:16;10.43;;;2.20;;
40150;SDS011;25866;52.420;10.640;2024-03-17T15:16:43;7.25;;;1.75;;
40150;SDS011;25866;52.420;10.640;2024-03-17T15:19:17;6.72;;;1.83;;
40150;SDS011;25866;52.420;10.640;2024-03-17T15:21:43;7.68;;;2.00;;
40150;SDS011;25866;52.420;10.640;2024-03-17T15:24:08;5.70;;;2.08;;
40150;SDS011;25866;52.420;10.640;2024-03-17T15:26:34;11.20;;;2.28;;
40150;SDS011;25866;52.420;10.640;2024-03-17T15:29:01;5.55;;;1.83;;
40150;SDS011;25866;52.420;10.640;2024-03-17T15:31:29;7.13;;;2.00;;
40150;SDS011;25866;52.420;10.640;2024-03-17T15:33:57;10.02;;;2.22;;